Time;durP1;ratioP1;P1;durP2;ratioP2;P2;SDS_P1;SDS_P2;PMS_P1;PMS_P2;Temp;Humidity;BMP_temperature;BMP_pressure;BME280_temperature;BME280_humidity;BME280_pressure;Samples;Min_cycle;Max_cycle;Signal;HPM_P1;HPM_P2
2023/04/04 00:02:00;;;;;;;4.23;2.63;;;-0.70;99.90;;;;;;5042334;28;20203;-78
2023/04/04 00:04:27;;;;;;;5.00;2.77;;;-0.80;99.90;;;;;;5047406;28;20223;-79
2023/04/04 00:06:54;;;;;;;5.87;2.70;;;-0.80;99.90;;;;;;5042921;28;20207;-78
2023/04/04 00:09:21;;;;;;;5.63;2.50;;;-0.80;99.90;;;;;;5040860;28;20642;-78
2023/04/04 00:11:49;;;;;;;4.20;2.30;;;-1.00;99.90;;;;;;5041582;28;20207;-79
2023/04/04 00:14:17;;;;;;;4.57;2.40;;;-1.20;99.90;;;;;;5043761;28;20744;-78
2023/04/04 00:16:43;;;;;;;2.67;2.20;;;-1.10;99.90;;;;;;5033475;28;20266;-79
2023/04/04 00:19:16;;;;;;;4.23;2.47;;;-1.30;99.90;;;;;;5034572;28;20196;-79
2023/04/04 00:21:43;;;;;;;5.03;2.33;;;-1.30;99.90;;;;;;5033946;28;20305;-78
2023/04/04 00:24:10;;;;;;;7.13;3.03;;;-1.40;99.90;;;;;;5033246;28;20220;-79
2023/04/04 00:26:37;;;;;;;4.27;2.67;;;-1.40;99.90;;;;;;5034646;28;20561;-78
2023/04/04 00:29:05;;;;;;;5.87;2.57;;;-1.30;99.90;;;;;;5034487;28;20220;-78
2023/04/04 00:31:32;;;;;;;4.50;2.80;;;-1.30;99.90;;;;;;5034710;28;20687;-79
2023/04/04 00:33:59;;;;;;;3.57;2.50;;;-1.30;99.90;;;;;;5034465;28;20238;-78
2023/04/04 00:36:26;;;;;;;4.23;2.40;;;-1.30;99.90;;;;;;5034172;28;20310;-78
2023/04/04 00:38:52;;;;;;;5.37;2.67;;;-1.50;99.90;;;;;;5037038;28;20247;-78
2023/04/04 00:41:19;;;;;;;5.90;2.43;;;-1.60;99.90;;;;;;5034621;28;20646;-78
2023/04/04 00:43:46;;;;;;;4.77;2.70;;;-1.60;99.90;;;;;;5041617;28;20220;-78
2023/04/04 00:46:17;;;;;;;5.90;2.80;;;-1.30;99.90;;;;;;5033145;28;20535;-78
2023/04/04 00:48:44;;;;;;;4.77;2.57;;;-1.50;99.90;;;;;;5033195;28;20235;-78
2023/04/04 00:51:11;;;;;;;4.43;2.80;;;-1.50;99.90;;;;;;5031605;28;20206;-78
2023/04/04 00:53:38;;;;;;;6.47;2.97;;;-1.70;99.90;;;;;;5032584;28;20223;-78
2023/04/04 00:56:05;;;;;;;4.87;2.83;;;-1.70;99.90;;;;;;5042256;28;20226;-78
2023/04/04 00:58:32;;;;;;;5.27;3.00;;;-1.70;99.90;;;;;;5050175;28;20199;-78
2023/04/04 01:01:01;;;;;;;4.87;3.07;;;-1.70;99.90;;;;;;5032228;28;20298;-78
2023/04/04 01:03:29;;;;;;;3.37;2.70;;;-1.80;99.90;;;;;;5033728;28;20270;-78
2023/04/04 01:05:56;;;;;;;4.40;2.70;;;-1.70;99.90;;;;;;5032345;28;20206;-78
2023/04/04 01:08:26;;;;;;;5.43;2.90;;;-1.90;99.90;;;;;;5032425;28;20742;-78
2023/04/04 01:10:53;;;;;;;5.77;3.07;;;-2.00;99.90;;;;;;5040498;28;20669;-78
2023/04/04 01:13:20;;;;;;;5.17;3.03;;;-2.00;99.90;;;;;;5033342;28;20219;-78
2023/04/04 01:15:48;;;;;;;6.90;3.30;;;-1.80;99.90;;;;;;5032512;28;20258;-78
2023/04/04 01:18:19;;;;;;;3.43;2.70;;;-1.70;99.90;;;;;;5040549;28;20716;-78
2023/04/04 01:20:54;;;;;;;4.97;3.10;;;-1.80;99.90;;;;;;5043445;28;20199;-78
2023/04/04 01:23:24;;;;;;;4.40;2.70;;;-1.90;99.90;;;;;;5053133;28;20222;-78
2023/04/04 01:26:04;;;;;;;5.47;2.80;;;-1.90;99.90;;;;;;5041880;28;20658;-78
2023/04/04 01:28:31;;;;;;;6.40;3.20;;;-2.00;99.90;;;;;;5032893;28;20208;-78
2023/04/04 01:31:00;;;;;;;5.43;3.77;;;-2.10;99.90;;;;;;5033078;28;20238;-78
2023/04/04 01:33:29;;;;;;;5.80;3.23;;;-2.00;99.90;;;;;;5033376;28;20247;-78
2023/04/04 01:36:05;;;;;;;6.13;3.33;;;-2.00;99.90;;;;;;5032724;28;20254;-78
2023/04/04 01:38:41;;;;;;;7.43;4.13;;;-1.90;99.90;;;;;;5032327;28;20198;-78
2023/04/04 01:41:12;;;;;;;6.13;3.60;;;-2.00;99.90;;;;;;5043701;28;20194;-78
2023/04/04 01:43:38;;;;;;;5.93;3.40;;;-2.10;99.90;;;;;;5047884;28;20620;-78
2023/04/04 01:46:06;;;;;;;7.33;3.40;;;-2.10;99.90;;;;;;5032908;28;20891;-78
2023/04/04 01:48:33;;;;;;;5.53;3.50;;;-2.20;99.90;;;;;;5031516;28;20214;-78
2023/04/04 01:51:00;;;;;;;7.07;3.30;;;-2.10;99.90;;;;;;5041425;28;20294;-78
2023/04/04 01:53:27;;;;;;;4.30;3.30;;;-2.10;99.90;;;;;;5049002;28;20227;-78
2023/04/04 01:55:54;;;;;;;5.63;3.23;;;-2.30;99.90;;;;;;5039001;28;20217;-78
2023/04/04 01:58:23;;;;;;;7.40;3.80;;;-2.20;99.90;;;;;;5052437;28;20207;-78
2023/04/04 02:00:49;;;;;;;7.67;3.97;;;-2.00;99.90;;;;;;5047106;28;20198;-78
2023/04/04 02:03:16;;;;;;;6.33;3.63;;;-2.10;99.90;;;;;;5033252;28;20259;-78
2023/04/04 02:05:43;;;;;;;5.97;3.50;;;-2.20;99.90;;;;;;5032286;28;20279;-78
2023/04/04 02:08:11;;;;;;;6.30;3.90;;;-2.20;99.90;;;;;;5032882;28;20207;-78
2023/04/04 02:10:38;;;;;;;4.77;3.37;;;-2.20;99.90;;;;;;5036067;28;20254;-78
2023/04/04 02:13:05;;;;;;;5.63;3.57;;;-2.20;99.90;;;;;;5054486;28;20316;-78
2023/04/04 02:15:34;;;;;;;5.67;3.40;;;-2.30;99.90;;;;;;5044477;28;20314;-78
2023/04/04 02:18:02;;;;;;;7.77;3.50;;;-2.30;99.90;;;;;;5036775;28;20214;-78
2023/04/04 02:20:29;;;;;;;5.47;3.27;;;-2.10;99.90;;;;;;5045571;28;20525;-78
2023/04/04 02:22:56;;;;;;;6.57;3.80;;;-2.10;99.90;;;;;;5053762;28;20259;-78
2023/04/04 02:25:24;;;;;;;4.80;3.43;;;-2.20;99.90;;;;;;5055236;28;20195;-78
2023/04/04 02:27:51;;;;;;;5.63;3.43;;;-2.20;99.90;;;;;;5055875;28;20226;-78
2023/04/04 02:30:19;;;;;;;6.07;3.57;;;-2.20;99.90;;;;;;5046216;28;20594;-78
2023/04/04 02:32:47;;;;;;;6.87;3.70;;;-2.30;99.90;;;;;;5051910;28;20281;-78
2023/04/04 02:35:15;;;;;;;7.13;4.07;;;-2.40;99.90;;;;;;5055320;28;20341;-78
2023/04/04 02:37:44;;;;;;;8.57;3.83;;;-2.20;99.90;;;;;;5040859;28;20648;-78
2023/04/04 02:40:12;;;;;;;11.10;4.47;;;-2.30;99.90;;;;;;5038221;28;20770;-78
2023/04/04 02:42:42;;;;;;;4.27;2.93;;;-2.20;99.90;;;;;;5048954;28;20257;-78
2023/04/04 02:45:10;;;;;;;6.97;3.93;;;-2.40;99.90;;;;;;5054352;28;20203;-78
2023/04/04 02:47:37;;;;;;;6.53;3.70;;;-2.40;99.90;;;;;;5054867;28;20214;-78
2023/04/04 02:50:07;;;;;;;8.17;3.60;;;-2.40;99.90;;;;;;5049855;28;20206;-78
2023/04/04 02:52:34;;;;;;;6.30;4.07;;;-2.30;99.90;;;;;;5034459;28;20206;-78
2023/04/04 02:55:00;;;;;;;7.27;3.40;;;-2.40;99.90;;;;;;5035663;28;20200;-77
2023/04/04 02:57:27;;;;;;;6.20;3.20;;;-2.20;99.90;;;;;;5034415;28;20211;-78
2023/04/04 02:59:54;;;;;;;7.13;3.73;;;-2.20;99.90;;;;;;5034808;28;20210;-78
2023/04/04 03:02:21;;;;;;;6.20;3.40;;;-2.40;99.90;;;;;;5034650;28;20211;-78
2023/04/04 03:04:47;;;;;;;5.60;3.17;;;-2.40;99.90;;;;;;5033518;28;20262;-78
2023/04/04 03:07:15;;;;;;;7.07;3.47;;;-2.40;99.90;;;;;;5034668;28;20206;-78
2023/04/04 03:09:43;;;;;;;6.57;3.33;;;-2.50;99.90;;;;;;5035233;28;20204;-78
2023/04/04 03:12:11;;;;;;;6.50;3.50;;;-2.50;99.90;;;;;;5034524;28;20211;-78
2023/04/04 03:14:38;;;;;;;6.83;3.60;;;-2.40;99.90;;;;;;5042380;28;20293;-78
2023/04/04 03:17:05;;;;;;;6.50;3.50;;;-2.40;99.90;;;;;;5040959;28;20215;-79
2023/04/04 03:19:32;;;;;;;5.70;3.43;;;-2.50;99.90;;;;;;5035258;28;20208;-78
2023/04/04 03:21:59;;;;;;;6.13;3.27;;;-2.40;99.90;;;;;;5036941;28;20290;-78
2023/04/04 03:24:27;;;;;;;5.00;3.17;;;-2.40;99.90;;;;;;5036206;28;20227;-79
2023/04/04 03:26:54;;;;;;;6.40;3.83;;;-2.50;99.90;;;;;;5036243;28;20290;-79
2023/04/04 03:29:21;;;;;;;8.30;3.37;;;-2.50;99.90;;;;;;5036088;28;20216;-79
2023/04/04 03:31:48;;;;;;;6.43;3.83;;;-2.50;99.90;;;;;;5042846;28;20205;-79
2023/04/04 03:34:15;;;;;;;7.50;3.63;;;-2.50;99.90;;;;;;5053565;28;20222;-79
2023/04/04 03:36:42;;;;;;;7.27;3.33;;;-2.40;99.90;;;;;;5044634;28;20234;-79
2023/04/04 03:39:08;;;;;;;8.90;3.60;;;-2.60;99.90;;;;;;5035315;28;20720;-79
2023/04/04 03:41:36;;;;;;;6.97;3.53;;;-2.50;99.90;;;;;;5036697;28;20271;-79
2023/04/04 03:44:04;;;;;;;5.37;3.93;;;-2.50;99.90;;;;;;5036359;28;20230;-79
2023/04/04 03:46:31;;;;;;;10.23;5.13;;;-2.80;99.90;;;;;;5035227;28;20203;-78
2023/04/04 03:48:59;;;;;;;14.97;7.60;;;-2.60;99.90;;;;;;5034911;28;20199;-78
2023/04/04 03:51:26;;;;;;;10.10;5.57;;;-2.70;99.90;;;;;;5034802;28;20211;-79
2023/04/04 03:53:53;;;;;;;9.43;4.60;;;-2.70;99.90;;;;;;5034395;28;20219;-79
2023/04/04 03:56:20;;;;;;;6.33;3.90;;;-2.70;99.90;;;;;;5037633;28;20219;-79
2023/04/04 03:58:48;;;;;;;9.27;3.97;;;-2.70;99.90;;;;;;5034526;28;20228;-79
2023/04/04 04:01:15;;;;;;;5.27;3.97;;;-2.80;99.90;;;;;;5036416;28;20399;-79
2023/04/04 04:03:42;;;;;;;8.67;3.70;;;-2.70;99.90;;;;;;5036984;28;20236;-79
2023/04/04 04:06:09;;;;;;;7.13;3.93;;;-2.80;99.90;;;;;;5040456;28;20196;-79
2023/04/04 04:08:36;;;;;;;7.27;3.97;;;-2.50;99.90;;;;;;5042035;28;20222;-79
2023/04/04 04:11:06;;;;;;;5.57;3.80;;;-2.70;99.90;;;;;;5044063;28;20214;-79
2023/04/04 04:13:34;;;;;;;5.40;3.70;;;-2.60;99.90;;;;;;5047725;28;20274;-79
2023/04/04 04:16:03;;;;;;;7.33;3.63;;;-2.70;99.90;;;;;;5040494;28;20310;-79
2023/04/04 04:18:31;;;;;;;6.27;3.90;;;-2.70;99.90;;;;;;5035981;28;20210;-79
2023/04/04 04:20:58;;;;;;;8.80;4.17;;;-2.80;99.90;;;;;;5035292;28;20215;-79
2023/04/04 04:23:25;;;;;;;6.90;3.70;;;-2.90;99.90;;;;;;5036171;28;20227;-79
2023/04/04 04:25:52;;;;;;;6.53;3.70;;;-2.80;99.90;;;;;;5034882;28;20204;-79
2023/04/04 04:28:19;;;;;;;5.60;4.07;;;-2.80;99.90;;;;;;5033153;28;20246;-79
2023/04/04 04:30:46;;;;;;;7.73;4.13;;;-2.80;99.90;;;;;;5034996;28;20212;-79
2023/04/04 04:33:14;;;;;;;8.57;4.17;;;-2.80;99.90;;;;;;5033405;28;20255;-80
2023/04/04 04:35:41;;;;;;;8.07;3.70;;;-2.70;99.90;;;;;;5053992;28;20557;-79
2023/04/04 04:38:08;;;;;;;6.83;4.30;;;-2.60;99.90;;;;;;5054836;28;20207;-79
2023/04/04 04:40:35;;;;;;;7.27;4.07;;;-2.70;99.90;;;;;;5054938;28;20211;-79
2023/04/04 04:43:02;;;;;;;6.23;3.73;;;-2.60;99.90;;;;;;5054273;28;20223;-79
2023/04/04 04:45:29;;;;;;;5.70;3.37;;;-2.60;99.90;;;;;;5044247;28;20203;-79
2023/04/04 04:47:56;;;;;;;5.93;3.70;;;-2.90;99.90;;;;;;5053461;28;20199;-79
2023/04/04 04:50:24;;;;;;;7.60;4.10;;;-3.10;99.90;;;;;;5037014;28;20717;-79
2023/04/04 04:52:51;;;;;;;6.73;4.00;;;-3.10;99.90;;;;;;5052981;28;20223;-79
2023/04/04 04:55:18;;;;;;;9.93;4.30;;;-2.70;99.90;;;;;;5046865;28;20215;-79
2023/04/04 04:57:47;;;;;;;7.83;4.10;;;-2.50;99.90;;;;;;5034772;28;20219;-79
2023/04/04 05:00:17;;;;;;;10.07;4.70;;;-2.50;99.90;;;;;;5034154;28;20210;-79
2023/04/04 05:02:44;;;;;;;8.13;4.43;;;-2.40;99.90;;;;;;5035003;28;20219;-79
2023/04/04 05:05:10;;;;;;;7.13;4.17;;;-1.80;99.90;;;;;;5034464;28;20207;-79
2023/04/04 05:07:39;;;;;;;10.03;4.80;;;-1.20;99.90;;;;;;5035092;28;20295;-80
2023/04/04 05:10:07;;;;;;;7.60;3.90;;;-1.40;99.90;;;;;;5035348;28;20662;-79
2023/04/04 05:12:37;;;;;;;6.90;4.10;;;-1.80;99.90;;;;;;5039816;28;20657;-79
2023/04/04 05:15:04;;;;;;;6.60;4.20;;;-2.00;99.90;;;;;;5048775;28;20269;-79
2023/04/04 05:17:31;;;;;;;9.07;4.53;;;-2.00;99.90;;;;;;5038869;28;20223;-79
2023/04/04 05:19:58;;;;;;;9.40;4.83;;;-1.90;99.90;;;;;;5044987;28;20203;-79
2023/04/04 05:22:25;;;;;;;7.30;4.57;;;-1.80;99.90;;;;;;5045583;28;20638;-79
2023/04/04 05:24:53;;;;;;;8.10;4.20;;;-2.00;99.90;;;;;;5039452;28;20266;-79
2023/04/04 05:27:20;;;;;;;5.90;4.07;;;-2.10;99.90;;;;;;5033878;28;20258;-79
2023/04/04 05:29:47;;;;;;;7.73;3.87;;;-2.00;99.90;;;;;;5034051;28;20222;-79
2023/04/04 05:32:14;;;;;;;7.97;4.27;;;-1.90;99.90;;;;;;5034660;28;20735;-79
2023/04/04 05:34:41;;;;;;;9.87;4.27;;;-1.70;99.90;;;;;;5044619;28;20653;-79
2023/04/04 05:37:08;;;;;;;7.83;4.27;;;-1.60;99.90;;;;;;5053618;28;20230;-79
2023/04/04 05:39:35;;;;;;;9.17;4.13;;;-1.30;99.90;;;;;;5053770;28;20207;-79
2023/04/04 05:42:03;;;;;;;8.90;4.13;;;-1.30;99.90;;;;;;5036731;28;20215;-79
2023/04/04 05:44:30;;;;;;;9.67;4.07;;;-1.60;99.90;;;;;;5037997;28;20233;-79
2023/04/04 05:46:57;;;;;;;8.37;4.10;;;-1.40;99.90;;;;;;5053614;28;20234;-79
2023/04/04 05:49:24;;;;;;;6.60;4.23;;;-1.00;99.90;;;;;;5056897;28;20207;-79
2023/04/04 05:51:51;;;;;;;10.63;4.67;;;-0.70;99.90;;;;;;5045747;28;20203;-79
2023/04/04 05:54:18;;;;;;;10.37;4.40;;;-0.50;99.90;;;;;;5056240;28;20277;-79
2023/04/04 05:56:44;;;;;;;7.37;3.70;;;-0.60;99.90;;;;;;5056951;28;20310;-79
2023/04/04 05:59:12;;;;;;;8.83;3.93;;;-0.60;99.90;;;;;;5051698;28;20294;-79
2023/04/04 06:01:39;;;;;;;9.23;4.00;;;-0.50;99.90;;;;;;5037153;28;20692;-79
2023/04/04 06:04:06;;;;;;;7.10;4.10;;;-0.40;99.90;;;;;;5035737;28;20238;-79
2023/04/04 06:06:33;;;;;;;7.03;3.97;;;-0.10;99.90;;;;;;5036740;28;20668;-80
2023/04/04 06:09:00;;;;;;;6.90;4.50;;;0.30;99.90;;;;;;5039042;28;20706;-79
2023/04/04 06:11:27;;;;;;;8.10;3.87;;;0.40;99.90;;;;;;5056375;28;20203;-79
2023/04/04 06:13:54;;;;;;;8.47;4.20;;;0.40;99.90;;;;;;5056985;28;20329;-79
2023/04/04 06:16:23;;;;;;;8.83;3.67;;;0.80;99.90;;;;;;5055750;28;20199;-79
2023/04/04 06:18:50;;;;;;;6.43;3.93;;;1.50;99.90;;;;;;5056270;28;20203;-79
2023/04/04 06:21:17;;;;;;;7.80;3.47;;;1.50;99.90;;;;;;5040505;28;20690;-79
2023/04/04 06:23:43;;;;;;;10.00;4.10;;;1.80;99.90;;;;;;5036528;28;20306;-79
2023/04/04 06:26:11;;;;;;;8.17;3.73;;;2.00;99.90;;;;;;5036734;28;20215;-79
2023/04/04 06:28:38;;;;;;;7.10;3.00;;;1.80;99.90;;;;;;5036438;28;20290;-79
2023/04/04 06:31:07;;;;;;;6.33;3.00;;;1.40;99.90;;;;;;5044491;28;20207;-79
2023/04/04 06:33:35;;;;;;;8.33;3.30;;;1.80;99.90;;;;;;5035563;28;20224;-79
2023/04/04 06:36:02;;;;;;;10.13;3.67;;;2.00;99.90;;;;;;5044763;28;20566;-79
2023/04/04 06:38:29;;;;;;;7.70;3.13;;;1.80;99.90;;;;;;5055509;28;20592;-79
2023/04/04 06:40:56;;;;;;;7.27;4.37;;;2.20;99.90;;;;;;5056298;28;20573;-79
2023/04/04 06:43:23;;;;;;;6.20;3.20;;;2.20;99.90;;;;;;5055447;28;20233;-79
2023/04/04 06:45:51;;;;;;;6.23;3.00;;;2.10;99.90;;;;;;5048492;28;20221;-79
2023/04/04 06:48:17;;;;;;;8.67;3.33;;;2.10;99.90;;;;;;5035625;28;20204;-79
2023/04/04 06:50:46;;;;;;;7.67;3.10;;;2.20;99.90;;;;;;5035411;28;20210;-79
2023/04/04 06:53:13;;;;;;;4.43;3.10;;;2.30;99.90;;;;;;5035130;28;20286;-79
2023/04/04 06:55:40;;;;;;;9.90;3.40;;;2.60;99.90;;;;;;5034763;28;20211;-79
2023/04/04 06:58:07;;;;;;;5.97;2.70;;;2.40;99.90;;;;;;5033839;28;20230;-79
2023/04/04 07:00:34;;;;;;;4.97;3.10;;;2.00;99.90;;;;;;5034855;28;20218;-79
2023/04/04 07:03:01;;;;;;;6.20;3.30;;;2.00;99.90;;;;;;5034074;28;20227;-79
2023/04/04 07:05:28;;;;;;;4.83;2.87;;;2.50;99.90;;;;;;5033825;28;20211;-80
2023/04/04 07:07:56;;;;;;;4.87;2.90;;;2.60;99.90;;;;;;5034700;28;20199;-79
2023/04/04 07:10:24;;;;;;;5.77;2.83;;;2.90;99.90;;;;;;5034922;28;20266;-79
2023/04/04 07:12:51;;;;;;;5.63;2.80;;;2.00;99.90;;;;;;5034687;28;20231;-80
2023/04/04 07:15:18;;;;;;;5.43;2.90;;;2.60;99.90;;;;;;5037959;28;20208;-80
2023/04/04 07:17:45;;;;;;;6.97;3.20;;;2.40;99.90;;;;;;5055729;28;20199;-80
2023/04/04 07:20:12;;;;;;;7.93;3.17;;;2.30;99.90;;;;;;5048849;28;20207;-80
2023/04/04 07:22:39;;;;;;;3.73;2.60;;;2.30;99.90;;;;;;5036526;28;20727;-80
2023/04/04 07:25:12;;;;;;;6.63;3.30;;;2.50;99.90;;;;;;5055409;28;20452;-80
2023/04/04 07:27:39;;;;;;;4.97;3.13;;;2.70;99.90;;;;;;5056439;28;20711;-80
2023/04/04 07:30:07;;;;;;;5.30;2.93;;;2.80;99.90;;;;;;5040589;28;20238;-79
2023/04/04 07:32:37;;;;;;;7.40;3.10;;;2.70;99.90;;;;;;5036332;28;20207;-80
2023/04/04 07:35:05;;;;;;;7.53;3.57;;;3.60;99.90;;;;;;5036383;28;20208;-80
2023/04/04 07:37:32;;;;;;;4.47;2.90;;;3.30;99.90;;;;;;5034919;28;20318;-80
2023/04/04 07:39:59;;;;;;;9.47;3.53;;;4.40;99.90;;;;;;5049971;28;20207;-80
2023/04/04 07:42:29;;;;;;;7.20;3.73;;;4.40;99.90;;;;;;5055366;28;20207;-80
2023/04/04 07:44:56;;;;;;;5.20;2.90;;;4.20;99.90;;;;;;5057393;28;20214;-80
2023/04/04 07:47:23;;;;;;;7.00;2.67;;;4.20;99.90;;;;;;5054435;28;20206;-80
2023/04/04 07:49:50;;;;;;;5.37;2.73;;;4.00;99.90;;;;;;5056017;28;20450;-80
2023/04/04 07:52:17;;;;;;;4.87;2.83;;;4.00;99.90;;;;;;5053419;28;20207;-80
2023/04/04 07:54:44;;;;;;;3.27;2.60;;;3.90;99.90;;;;;;5048930;28;20207;-80
2023/04/04 07:57:10;;;;;;;5.87;2.87;;;3.90;99.90;;;;;;5041103;28;20237;-80
2023/04/04 07:59:39;;;;;;;5.03;2.80;;;5.00;99.90;;;;;;5036011;28;20724;-80
2023/04/04 08:02:06;;;;;;;6.50;3.23;;;4.40;99.90;;;;;;5035014;28;20270;-80
2023/04/04 08:04:33;;;;;;;4.63;2.80;;;5.10;99.90;;;;;;5048416;28;20302;-80
2023/04/04 08:07:00;;;;;;;6.77;2.80;;;5.40;99.90;;;;;;5038128;28;20728;-80
2023/04/04 08:09:30;;;;;;;6.67;2.80;;;4.90;99.90;;;;;;5034129;28;20195;-80
2023/04/04 08:11:56;;;;;;;4.40;2.23;;;5.10;99.90;;;;;;5035217;28;20203;-80
2023/04/04 08:14:23;;;;;;;4.17;2.33;;;4.50;99.90;;;;;;5034997;28;20322;-80
2023/04/04 08:16:52;;;;;;;4.43;2.30;;;4.20;99.90;;;;;;5034881;28;20262;-80
2023/04/04 08:19:19;;;;;;;5.70;1.97;;;4.40;99.90;;;;;;5034405;28;20294;-81
2023/04/04 08:21:46;;;;;;;3.37;2.00;;;4.40;99.90;;;;;;5054270;28;20230;-80
2023/04/04 08:24:13;;;;;;;3.10;1.60;;;4.60;99.90;;;;;;5041200;28;20234;-80
2023/04/04 08:26:40;;;;;;;6.93;2.30;;;4.60;99.90;;;;;;5034988;28;20294;-80
2023/04/04 08:29:06;;;;;;;7.57;2.17;;;4.90;99.90;;;;;;5035891;28;20271;-80
2023/04/04 08:31:33;;;;;;;6.70;1.87;;;4.30;99.90;;;;;;5035929;28;20200;-80
2023/04/04 08:34:02;;;;;;;5.23;2.00;;;4.30;99.90;;;;;;5040460;28;20233;-80
2023/04/04 08:36:29;;;;;;;3.93;1.80;;;4.40;99.90;;;;;;5054385;28;20302;-80
2023/04/04 08:38:56;;;;;;;3.60;1.90;;;4.20;99.90;;;;;;5054515;28;20666;-80
2023/04/04 08:41:24;;;;;;;3.67;1.67;;;4.60;99.90;;;;;;5054909;28;20202;-80
2023/04/04 08:43:54;;;;;;;2.77;1.60;;;4.80;99.90;;;;;;5054864;28;20317;-80
2023/04/04 08:46:22;;;;;;;2.63;1.60;;;4.80;99.90;;;;;;5053423;28;20218;-80
2023/04/04 08:48:50;;;;;;;7.37;2.63;;;4.80;99.90;;;;;;5039394;28;20701;-81
2023/04/04 08:51:20;;;;;;;1.63;1.50;;;5.00;99.90;;;;;;5035150;28;20658;-80
2023/04/04 08:53:47;;;;;;;6.77;1.83;;;4.90;99.90;;;;;;5035635;28;20705;-80
2023/04/04 08:56:14;;;;;;;3.50;1.90;;;5.00;99.90;;;;;;5035991;28;20199;-80
2023/04/04 08:58:41;;;;;;;3.37;2.00;;;5.30;99.90;;;;;;5041046;28;20310;-80
2023/04/04 09:01:08;;;;;;;3.50;1.67;;;5.40;99.90;;;;;;5034610;28;20211;-80
2023/04/04 09:03:36;;;;;;;3.77;1.20;;;5.40;99.90;;;;;;5034833;28;20229;-80
2023/04/04 09:06:05;;;;;;;3.13;1.43;;;5.40;1.00;;;;;;5034164;28;20207;-80
2023/04/04 09:08:34;;;;;;;4.87;1.27;;;5.50;1.00;;;;;;5038008;28;20645;-80
2023/04/04 09:11:03;;;;;;;3.87;1.67;;;5.50;1.00;;;;;;5038573;28;20574;-80
2023/04/04 09:13:29;;;;;;;5.20;1.50;;;5.60;1.00;;;;;;5044291;28;20258;-80
2023/04/04 09:15:57;;;;;;;2.57;1.43;;;5.60;1.00;;;;;;5051568;28;20294;-80
2023/04/04 09:18:24;;;;;;;4.07;1.80;;;5.90;1.00;;;;;;5034850;28;20302;-81
2023/04/04 09:20:51;;;;;;;3.40;1.10;;;6.40;1.00;;;;;;5033896;28;20204;-80
2023/04/04 09:23:19;;;;;;;4.70;1.30;;;6.10;99.90;;;;;;5034850;28;20227;-80
2023/04/04 09:25:49;;;;;;;1.83;1.20;;;6.40;99.90;;;;;;5034472;28;20747;-80
2023/04/04 09:28:16;;;;;;;3.30;1.60;;;6.40;99.90;;;;;;5034055;28;20206;-80
2023/04/04 09:30:44;;;;;;;4.50;1.60;;;6.80;99.90;;;;;;5034248;28;20211;-81
2023/04/04 09:33:12;;;;;;;3.37;1.47;;;7.50;1.00;;;;;;5041533;28;20220;-81
2023/04/04 09:35:43;;;;;;;2.50;1.50;;;7.50;1.00;;;;;;5047622;28;20267;-80
2023/04/04 09:38:10;;;;;;;4.00;2.00;;;7.40;1.00;;;;;;5043045;28;20310;-80
2023/04/04 09:40:40;;;;;;;2.87;1.60;;;7.10;99.90;;;;;;5046282;28;20293;-80
2023/04/04 09:43:09;;;;;;;3.70;1.80;;;7.10;1.00;;;;;;5052251;28;20233;-80
2023/04/04 09:45:38;;;;;;;3.33;2.00;;;6.90;1.00;;;;;;5053112;28;20210;-80
2023/04/04 09:48:06;;;;;;;2.20;1.80;;;6.70;1.00;;;;;;5051759;28;20230;-81
2023/04/04 09:50:33;;;;;;;1.90;1.50;;;7.30;1.00;;;;;;5052264;28;20581;-80
2023/04/04 09:53:00;;;;;;;4.50;1.70;;;7.70;1.00;;;;;;5049291;28;20234;-80
2023/04/04 09:55:35;;;;;;;2.60;1.60;;;8.00;1.00;;;;;;5033557;28;20300;-80
2023/04/04 09:58:14;;;;;;;2.97;1.87;;;7.60;1.00;;;;;;5033651;28;20571;-80
2023/04/04 10:00:43;;;;;;;2.63;1.93;;;7.20;99.90;;;;;;5051734;28;20653;-81
2023/04/04 10:03:13;;;;;;;4.77;2.33;;;7.30;99.90;;;;;;5053980;28;20227;-81
2023/04/04 10:05:40;;;;;;;2.57;2.33;;;7.40;99.90;;;;;;5052976;28;20206;-80
2023/04/04 10:08:17;;;;;;;4.87;2.10;;;7.60;99.90;;;;;;5052547;28;20191;-81
2023/04/04 10:10:51;;;;;;;4.40;2.40;;;6.70;1.00;;;;;;5047242;28;20621;-81
2023/04/04 10:13:27;;;;;;;3.40;2.60;;;6.50;1.00;;;;;;5030984;28;20224;-80
2023/04/04 10:15:54;;;;;;;5.27;2.37;;;6.50;1.00;;;;;;5040440;28;20222;-81
2023/04/04 10:18:24;;;;;;;2.40;2.20;;;6.70;1.00;;;;;;5031852;28;20231;-80
2023/04/04 10:20:52;;;;;;;2.87;2.10;;;6.20;1.00;;;;;;5032459;28;20207;-81
2023/04/04 10:23:22;;;;;;;4.33;2.37;;;5.80;99.90;;;;;;5032481;28;20234;-81
2023/04/04 10:25:49;;;;;;;3.73;2.50;;;5.80;99.90;;;;;;5032468;28;20226;-81
2023/04/04 10:28:17;;;;;;;4.53;2.23;;;6.30;99.90;;;;;;5030515;28;20203;-80
2023/04/04 10:30:50;;;;;;;4.03;2.10;;;6.30;99.90;;;;;;5032160;28;20231;-80
2023/04/04 10:33:22;;;;;;;5.87;2.80;;;6.30;99.90;;;;;;5034132;28;20223;-80
2023/04/04 10:35:53;;;;;;;4.27;2.57;;;6.80;1.00;;;;;;5035992;28;20210;-81
2023/04/04 10:38:26;;;;;;;3.63;2.57;;;6.40;1.00;;;;;;5035601;28;20219;-80
2023/04/04 10:40:55;;;;;;;4.80;2.70;;;5.80;99.90;;;;;;5042317;28;20217;-81
2023/04/04 10:43:27;;;;;;;3.93;2.10;;;5.70;99.90;;;;;;5055887;28;20230;-81
2023/04/04 10:45:58;;;;;;;2.20;1.70;;;6.10;99.90;;;;;;5051432;28;20206;-81
2023/04/04 10:48:26;;;;;;;4.37;2.37;;;7.40;99.90;;;;;;5051537;28;20200;-81
2023/04/04 10:50:55;;;;;;;5.60;2.60;;;7.80;99.90;;;;;;5035338;28;20709;-80
2023/04/04 10:53:22;;;;;;;3.10;1.77;;;7.40;99.90;;;;;;5040775;28;20225;-81
2023/04/04 10:55:50;;;;;;;3.73;1.93;;;7.10;44.40;;;;;;5036659;28;20204;-81
2023/04/04 10:58:17;;;;;;;4.53;2.17;;;7.50;99.90;;;;;;5047060;28;20222;-80
2023/04/04 11:00:51;;;;;;;4.80;2.37;;;7.00;1.00;;;;;;5057204;28;20203;-80
2023/04/04 11:03:19;;;;;;;4.70;2.60;;;7.00;1.00;;;;;;5047149;28;20223;-80
2023/04/04 11:05:47;;;;;;;5.03;2.60;;;7.00;1.00;;;;;;5049661;28;20211;-81
2023/04/04 11:08:18;;;;;;;3.43;2.17;;;7.30;1.00;;;;;;5036810;28;20623;-81
2023/04/04 11:10:47;;;;;;;5.40;2.47;;;8.40;27.90;;;;;;5036440;28;20204;-80
2023/04/04 11:13:17;;;;;;;4.47;2.33;;;8.40;1.00;;;;;;5035767;28;20490;-82
2023/04/04 11:15:53;;;;;;;5.60;2.70;;;7.70;1.00;;;;;;5035966;28;20682;-81
2023/04/04 11:18:22;;;;;;;3.67;2.63;;;8.10;1.00;;;;;;5035092;28;20660;-81
2023/04/04 11:20:50;;;;;;;6.37;2.80;;;7.70;1.00;;;;;;5035520;28;20298;-80
2023/04/04 11:23:20;;;;;;;3.77;2.60;;;7.50;1.00;;;;;;5037300;28;20278;-81
2023/04/04 11:25:51;;;;;;;6.90;2.80;;;7.30;1.00;;;;;;5055366;28;20635;-81
2023/04/04 11:28:43;;;;;;;4.27;2.93;;;7.30;1.00;;;;;;5054362;28;20449;-81
2023/04/04 11:31:27;;;;;;;3.60;2.73;;;7.60;1.00;;;;;;5056175;28;20210;-80
2023/04/04 11:33:58;;;;;;;5.10;2.90;;;7.00;1.00;;;;;;5055291;28;20253;-80
2023/04/04 11:36:51;;;;;;;5.77;2.90;;;6.70;1.00;;;;;;5054893;28;20203;-80
2023/04/04 11:39:27;;;;;;;4.93;3.13;;;6.40;1.00;;;;;;5055368;28;20215;-81
2023/04/04 11:41:56;;;;;;;7.43;3.83;;;7.10;1.00;;;;;;5055531;28;20306;-80
2023/04/04 11:44:26;;;;;;;4.57;3.57;;;7.10;1.00;;;;;;5034144;28;20254;-80
2023/04/04 11:46:56;;;;;;;4.03;2.90;;;7.30;1.00;;;;;;5034493;28;20208;-80
2023/04/04 11:49:29;;;;;;;3.83;2.90;;;7.10;99.90;;;;;;5034058;28;20214;-80
2023/04/04 11:51:56;;;;;;;3.97;3.10;;;7.20;99.90;;;;;;5033281;28;20234;-80
2023/04/04 11:54:23;;;;;;;4.67;3.00;;;7.80;1.00;;;;;;5034523;28;20230;-80
2023/04/04 11:56:50;;;;;;;3.60;3.10;;;8.10;1.00;;;;;;5037339;28;20195;-79
2023/04/04 11:59:18;;;;;;;3.37;3.00;;;8.80;1.00;;;;;;5034188;28;20708;-79
2023/04/04 12:01:45;;;;;;;4.13;3.40;;;7.90;99.90;;;;;;5044777;28;20208;-80
2023/04/04 12:04:14;;;;;;;5.70;3.17;;;7.60;99.90;;;;;;5049294;28;20685;-81
2023/04/04 12:06:43;;;;;;;2.97;2.67;;;7.80;99.90;;;;;;5039265;28;20206;-81
2023/04/04 12:09:11;;;;;;;4.50;2.77;;;8.30;99.90;;;;;;5037945;28;20191;-81
2023/04/04 12:11:39;;;;;;;5.50;2.23;;;8.00;99.90;;;;;;5053844;28;20277;-80
2023/04/04 12:14:06;;;;;;;3.17;2.37;;;7.30;99.90;;;;;;5046304;28;20314;-80
2023/04/04 12:16:35;;;;;;;4.77;2.60;;;7.70;99.90;;;;;;5053626;28;20203;-80
2023/04/04 12:19:02;;;;;;;2.43;2.20;;;7.60;99.90;;;;;;5053625;28;20281;-81
2023/04/04 12:21:31;;;;;;;3.63;2.70;;;7.60;99.90;;;;;;5053903;28;20578;-80
2023/04/04 12:24:00;;;;;;;3.27;2.53;;;7.90;99.90;;;;;;5054080;28;20268;-80
2023/04/04 12:26:28;;;;;;;2.23;2.03;;;7.70;99.90;;;;;;5054069;28;20305;-81
2023/04/04 12:28:56;;;;;;;2.93;2.50;;;7.50;99.90;;;;;;5052242;28;20294;-80
2023/04/04 12:31:24;;;;;;;2.73;2.37;;;7.80;99.90;;;;;;5043508;28;20200;-80
2023/04/04 12:33:52;;;;;;;2.87;2.10;;;7.40;17.60;;;;;;5049905;28;20215;-80
2023/04/04 12:36:19;;;;;;;2.40;2.13;;;7.50;49.90;;;;;;5045207;28;20196;-80
2023/04/04 12:39:00;;;;;;;3.83;2.40;;;7.90;48.60;;;;;;5034893;28;20230;-80
2023/04/04 12:41:27;;;;;;;6.13;2.10;;;7.70;99.90;;;;;;5044953;28;20198;-80
2023/04/04 12:44:01;;;;;;;3.43;2.30;;;7.70;39.10;;;;;;5048297;28;20835;-80
2023/04/04 12:46:28;;;;;;;5.07;2.20;;;7.80;1.00;;;;;;5034153;28;20223;-80
2023/04/04 12:48:55;;;;;;;3.97;2.07;;;7.70;65.90;;;;;;5033351;28;20200;-81
2023/04/04 12:51:31;;;;;;;4.90;2.70;;;7.40;1.00;;;;;;5038353;28;20552;-81
2023/04/04 12:54:00;;;;;;;5.07;2.03;;;7.70;1.00;;;;;;5038363;28;20246;-80
2023/04/04 12:56:28;;;;;;;3.30;2.30;;;8.10;1.00;;;;;;5032545;28;20216;-80
2023/04/04 12:59:03;;;;;;;4.97;2.63;;;8.00;1.00;;;;;;5032707;28;20230;-81